Time;durP1;ratioP1;P1;durP2;ratioP2;P2;SDS_P1;SDS_P2;PMS_P1;PMS_P2;Temp;Humidity;BMP_temperature;BMP_pressure;BME280_temperature;BME280_humidity;BME280_pressure;Samples;Min_cycle;Max_cycle;Signal;HPM_P1;HPM_P2
2022/09/09 00:01:55;;;;;;;3.35;2.83;;;;;;;;;;5032911;28;20436;-62
2022/09/09 00:04:27;;;;;;;4.35;2.95;;;;;;;;;;5024543;28;20034;-62
2022/09/09 00:07:12;;;;;;;6.07;3.80;;;;;;;;;;5011066;28;20079;-62
2022/09/09 00:09:48;;;;;;;6.57;3.35;;;;;;;;;;5031720;28;20120;-62
2022/09/09 00:12:21;;;;;;;5.30;3.35;;;;;;;;;;4998448;28;20507;-63
2022/09/09 00:14:53;;;;;;;5.20;3.42;;;;;;;;;;5030555;28;20515;-62
2022/09/09 00:17:22;;;;;;;5.50;3.95;;;;;;;;;;5042183;28;20562;-62
2022/09/09 00:19:55;;;;;;;7.32;5.38;;;;;;;;;;5050773;28;20048;-62
2022/09/09 00:22:23;;;;;;;5.25;3.53;;;;;;;;;;5044978;28;20038;-62
2022/09/09 00:24:49;;;;;;;5.05;4.05;;;;;;;;;;5037078;28;20041;-62
2022/09/09 00:27:19;;;;;;;6.93;4.07;;;;;;;;;;5018613;28;20045;-62
2022/09/09 00:29:57;;;;;;;5.82;3.78;;;;;;;;;;5018845;28;20057;-62
2022/09/09 00:32:28;;;;;;;7.32;4.35;;;;;;;;;;5010763;28;20073;-62
2022/09/09 00:34:55;;;;;;;4.38;3.97;;;;;;;;;;5039046;28;20052;-62
2022/09/09 00:37:23;;;;;;;6.03;3.83;;;;;;;;;;5030351;28;20037;-62
2022/09/09 00:39:51;;;;;;;6.53;4.82;;;;;;;;;;5029795;28;20042;-62
2022/09/09 00:42:24;;;;;;;7.90;5.47;;;;;;;;;;5030119;28;20053;-62
2022/09/09 00:44:59;;;;;;;10.05;4.45;;;;;;;;;;5015103;28;20469;-63
2022/09/09 00:47:29;;;;;;;9.32;4.95;;;;;;;;;;5048059;28;20121;-62
2022/09/09 00:50:14;;;;;;;7.45;5.32;;;;;;;;;;5038907;28;20046;-62
2022/09/09 00:52:48;;;;;;;7.25;5.10;;;;;;;;;;5036208;28;20084;-62
2022/09/09 00:55:26;;;;;;;6.25;4.55;;;;;;;;;;5030841;28;20444;-62
2022/09/09 00:57:52;;;;;;;8.57;5.10;;;;;;;;;;5029614;28;20045;-62
2022/09/09 01:00:19;;;;;;;7.00;4.82;;;;;;;;;;5013460;28;20056;-62
2022/09/09 01:02:54;;;;;;;5.55;4.43;;;;;;;;;;5040719;28;20116;-62
2022/09/09 01:05:34;;;;;;;6.18;4.68;;;;;;;;;;5034174;28;20068;-63
2022/09/09 01:08:04;;;;;;;7.32;5.72;;;;;;;;;;5035656;28;20120;-62
2022/09/09 01:10:41;;;;;;;7.65;4.60;;;;;;;;;;5041609;28;20040;-62
2022/09/09 01:13:14;;;;;;;10.70;5.10;;;;;;;;;;5030750;28;20059;-62
2022/09/09 01:15:40;;;;;;;8.82;5.03;;;;;;;;;;5004587;28;20050;-62
2022/09/09 01:18:09;;;;;;;7.18;4.97;;;;;;;;;;5011636;28;20120;-62
2022/09/09 01:20:39;;;;;;;9.25;4.88;;;;;;;;;;5036061;28;20036;-62
2022/09/09 01:23:05;;;;;;;9.68;5.45;;;;;;;;;;5033706;28;20553;-63
2022/09/09 01:25:49;;;;;;;10.57;5.45;;;;;;;;;;5025472;28;20037;-63
2022/09/09 01:28:21;;;;;;;10.20;5.55;;;;;;;;;;5037714;28;20049;-63
2022/09/09 01:30:48;;;;;;;8.25;5.18;;;;;;;;;;5028125;28;20367;-63
2022/09/09 01:33:18;;;;;;;8.35;5.50;;;;;;;;;;4999027;28;20048;-63
2022/09/09 01:35:56;;;;;;;10.23;5.72;;;;;;;;;;5007466;28;20041;-63
2022/09/09 01:38:23;;;;;;;8.40;5.47;;;;;;;;;;4993968;28;20082;-62
2022/09/09 01:40:49;;;;;;;13.32;5.80;;;;;;;;;;5011672;28;20079;-63
2022/09/09 01:43:15;;;;;;;9.02;6.28;;;;;;;;;;5027042;28;20407;-63
2022/09/09 01:45:43;;;;;;;11.77;5.53;;;;;;;;;;5029006;28;20034;-63
2022/09/09 01:48:09;;;;;;;9.88;5.88;;;;;;;;;;5040213;28;20045;-63
2022/09/09 01:50:35;;;;;;;10.05;5.93;;;;;;;;;;5036491;28;20051;-63
2022/09/09 01:53:02;;;;;;;11.27;6.68;;;;;;;;;;5036546;28;20063;-62
2022/09/09 01:55:33;;;;;;;9.85;5.85;;;;;;;;;;5035891;28;20401;-63
2022/09/09 01:58:16;;;;;;;7.55;5.90;;;;;;;;;;5037442;28;20080;-63
2022/09/09 02:00:45;;;;;;;12.63;6.18;;;;;;;;;;5025757;28;20065;-63
2022/09/09 02:03:19;;;;;;;10.07;6.10;;;;;;;;;;5034707;28;20052;-63
2022/09/09 02:05:48;;;;;;;7.90;6.13;;;;;;;;;;5010700;28;20048;-62
2022/09/09 02:08:24;;;;;;;9.27;5.85;;;;;;;;;;5015566;28;20044;-62
2022/09/09 02:11:02;;;;;;;8.13;6.10;;;;;;;;;;5034007;28;20044;-63
2022/09/09 02:13:29;;;;;;;8.57;5.97;;;;;;;;;;5035047;28;20049;-62
2022/09/09 02:16:01;;;;;;;7.68;5.95;;;;;;;;;;5024929;28;20049;-62
2022/09/09 02:18:35;;;;;;;7.82;6.03;;;;;;;;;;5020121;28;20052;-62
2022/09/09 02:21:03;;;;;;;10.20;6.43;;;;;;;;;;5037780;28;20051;-62
2022/09/09 02:23:29;;;;;;;11.63;6.10;;;;;;;;;;5037811;28;20037;-62
2022/09/09 02:25:56;;;;;;;10.27;6.32;;;;;;;;;;5038730;28;20041;-62
2022/09/09 02:28:24;;;;;;;8.52;6.72;;;;;;;;;;5036550;28;20398;-62
2022/09/09 02:30:54;;;;;;;8.63;6.00;;;;;;;;;;5028661;28;20045;-62
2022/09/09 02:33:23;;;;;;;10.70;6.35;;;;;;;;;;5035532;28;20454;-62
2022/09/09 02:35:50;;;;;;;11.63;6.78;;;;;;;;;;5035244;28;20095;-62
2022/09/09 02:38:17;;;;;;;11.75;6.95;;;;;;;;;;5041762;28;20040;-62
2022/09/09 02:40:43;;;;;;;8.43;6.68;;;;;;;;;;5016356;28;20041;-62
2022/09/09 02:43:09;;;;;;;11.13;6.47;;;;;;;;;;5012149;28;20084;-62
2022/09/09 02:45:54;;;;;;;10.63;6.78;;;;;;;;;;5028372;28;20499;-63
2022/09/09 02:48:43;;;;;;;9.43;6.65;;;;;;;;;;5023007;28;20507;-63
2022/09/09 02:51:10;;;;;;;12.40;6.72;;;;;;;;;;5044400;28;20040;-63
2022/09/09 02:53:42;;;;;;;9.13;6.35;;;;;;;;;;5045335;28;20048;-63
2022/09/09 02:56:16;;;;;;;8.60;5.78;;;;;;;;;;5035955;28;20454;-63
2022/09/09 02:58:43;;;;;;;7.10;5.88;;;;;;;;;;5011925;28;20223;-63
2022/09/09 03:01:09;;;;;;;11.55;6.00;;;;;;;;;;5017247;28;20443;-63
2022/09/09 03:03:35;;;;;;;9.77;5.90;;;;;;;;;;5044045;28;20495;-63
2022/09/09 03:06:01;;;;;;;8.40;5.63;;;;;;;;;;5035219;28;20044;-63
2022/09/09 03:08:27;;;;;;;8.15;5.72;;;;;;;;;;5032949;28;20043;-62
2022/09/09 03:10:58;;;;;;;8.10;5.25;;;;;;;;;;5019594;28;20495;-63
2022/09/09 03:13:25;;;;;;;7.13;4.85;;;;;;;;;;5031888;28;20044;-63
2022/09/09 03:15:51;;;;;;;6.38;4.10;;;;;;;;;;5031983;28;20384;-62
2022/09/09 03:18:17;;;;;;;6.50;4.20;;;;;;;;;;5051613;28;20041;-63
2022/09/09 03:20:43;;;;;;;6.47;4.03;;;;;;;;;;5045576;28;20048;-63
2022/09/09 03:23:09;;;;;;;5.72;3.65;;;;;;;;;;5014246;28;20053;-63
2022/09/09 03:25:35;;;;;;;4.50;2.70;;;;;;;;;;5038923;28;20394;-63
2022/09/09 03:28:01;;;;;;;3.50;2.40;;;;;;;;;;5034386;28;20048;-62
2022/09/09 03:30:28;;;;;;;2.97;2.35;;;;;;;;;;5026125;28;20033;-62
2022/09/09 03:32:57;;;;;;;4.57;2.58;;;;;;;;;;5047304;28;20127;-62
2022/09/09 03:35:23;;;;;;;3.83;2.28;;;;;;;;;;5035022;28;20042;-62
2022/09/09 03:37:49;;;;;;;4.53;2.38;;;;;;;;;;5033303;28;20038;-63
2022/09/09 03:40:15;;;;;;;3.40;2.50;;;;;;;;;;5018948;28;20392;-63
2022/09/09 03:42:41;;;;;;;4.05;2.22;;;;;;;;;;5030410;28;20071;-62
2022/09/09 03:45:09;;;;;;;4.18;2.40;;;;;;;;;;5041551;28;20121;-62
2022/09/09 03:47:35;;;;;;;3.70;2.65;;;;;;;;;;5034982;28;20045;-62
2022/09/09 03:50:01;;;;;;;5.55;2.88;;;;;;;;;;5031947;28;20403;-62
2022/09/09 03:52:27;;;;;;;5.97;3.13;;;;;;;;;;5012272;28;20077;-62
2022/09/09 03:54:54;;;;;;;5.97;3.95;;;;;;;;;;5028600;28;20495;-62
2022/09/09 03:57:21;;;;;;;8.13;4.78;;;;;;;;;;5026089;28;20117;-62
2022/09/09 03:59:47;;;;;;;8.13;4.32;;;;;;;;;;5040285;28;20423;-62
2022/09/09 04:02:13;;;;;;;6.80;4.72;;;;;;;;;;5022213;28;20068;-62
2022/09/09 04:04:39;;;;;;;7.68;5.55;;;;;;;;;;5022311;28;20033;-62
2022/09/09 04:07:06;;;;;;;12.18;6.32;;;;;;;;;;5039794;28;20442;-62
2022/09/09 04:09:33;;;;;;;9.50;6.15;;;;;;;;;;5014958;28;20049;-63
2022/09/09 04:11:59;;;;;;;11.90;7.13;;;;;;;;;;5021778;28;20045;-63
2022/09/09 04:14:27;;;;;;;8.57;6.60;;;;;;;;;;5044813;28;20042;-63
2022/09/09 04:16:53;;;;;;;10.27;7.18;;;;;;;;;;5015996;28;20116;-63
2022/09/09 04:19:19;;;;;;;10.15;7.68;;;;;;;;;;5044315;28;20034;-63
2022/09/09 04:21:45;;;;;;;12.52;6.90;;;;;;;;;;5032491;28;20041;-62
2022/09/09 04:24:11;;;;;;;11.10;6.90;;;;;;;;;;5031513;28;20506;-62
2022/09/09 04:26:37;;;;;;;13.70;7.53;;;;;;;;;;5020414;28;20032;-62
2022/09/09 04:29:04;;;;;;;12.02;7.10;;;;;;;;;;5029205;28;20037;-62
2022/09/09 04:31:30;;;;;;;9.23;6.88;;;;;;;;;;5035007;28;20030;-63
2022/09/09 04:33:57;;;;;;;10.25;6.72;;;;;;;;;;5048133;28;20581;-62
2022/09/09 04:36:23;;;;;;;10.23;6.45;;;;;;;;;;5036214;28;20099;-62
2022/09/09 04:38:49;;;;;;;10.57;5.90;;;;;;;;;;5038943;28;20252;-62
2022/09/09 04:41:16;;;;;;;10.40;6.20;;;;;;;;;;5037704;28;20123;-62
2022/09/09 04:43:42;;;;;;;10.07;6.90;;;;;;;;;;5023730;28;20047;-62
2022/09/09 04:46:08;;;;;;;12.07;7.20;;;;;;;;;;5035416;28;20568;-62
2022/09/09 04:48:34;;;;;;;9.95;7.32;;;;;;;;;;5033515;28;20487;-60
2022/09/09 04:51:01;;;;;;;13.23;7.95;;;;;;;;;;5031312;22;21128;-61
2022/09/09 04:53:27;;;;;;;8.70;6.63;;;;;;;;;;5027927;28;20033;-61
2022/09/09 04:56:01;;;;;;;10.88;7.70;;;;;;;;;;5029823;28;20045;-61
2022/09/09 04:58:27;;;;;;;10.85;7.45;;;;;;;;;;5025281;28;20046;-61
2022/09/09 05:00:53;;;;;;;10.45;7.40;;;;;;;;;;5004985;28;20049;-61
2022/09/09 05:03:19;;;;;;;11.52;7.22;;;;;;;;;;5011527;28;20049;-63
2022/09/09 05:05:45;;;;;;;12.88;7.88;;;;;;;;;;5017249;28;20033;-63
2022/09/09 05:08:11;;;;;;;10.77;7.97;;;;;;;;;;5010239;28;20119;-63
2022/09/09 05:10:38;;;;;;;11.00;7.10;;;;;;;;;;5010978;28;20034;-63
2022/09/09 05:13:06;;;;;;;11.20;7.55;;;;;;;;;;5001771;28;20046;-63
2022/09/09 05:15:32;;;;;;;8.55;6.03;;;;;;;;;;5003386;28;20495;-63
2022/09/09 05:18:00;;;;;;;11.45;7.13;;;;;;;;;;5010936;28;20095;-63
2022/09/09 05:20:26;;;;;;;10.98;6.80;;;;;;;;;;5018483;28;20185;-63
2022/09/09 05:22:56;;;;;;;8.43;6.22;;;;;;;;;;5011867;28;20050;-63
2022/09/09 05:25:22;;;;;;;10.33;7.23;;;;;;;;;;5016957;28;20057;-63
2022/09/09 05:27:49;;;;;;;11.52;6.72;;;;;;;;;;4989859;28;20550;-63
2022/09/09 05:30:15;;;;;;;7.57;6.40;;;;;;;;;;5010449;28;20049;-63
2022/09/09 05:32:41;;;;;;;8.65;6.35;;;;;;;;;;5005774;28;20481;-63
2022/09/09 05:35:07;;;;;;;12.60;6.75;;;;;;;;;;4986187;28;20069;-63
2022/09/09 05:37:34;;;;;;;6.90;5.93;;;;;;;;;;5023131;28;20119;-63
2022/09/09 05:40:01;;;;;;;8.88;6.55;;;;;;;;;;4997673;28;20126;-63
2022/09/09 05:42:30;;;;;;;8.18;5.82;;;;;;;;;;4987115;28;20064;-63
2022/09/09 05:44:57;;;;;;;8.38;6.00;;;;;;;;;;5013969;28;20051;-63
2022/09/09 05:47:23;;;;;;;9.68;5.78;;;;;;;;;;5010684;28;20041;-63
2022/09/09 05:49:49;;;;;;;9.23;5.60;;;;;;;;;;5019468;28;20036;-63
2022/09/09 05:52:15;;;;;;;9.77;6.38;;;;;;;;;;5005206;28;20451;-63
2022/09/09 05:54:42;;;;;;;9.40;5.57;;;;;;;;;;5008613;28;20279;-63
2022/09/09 05:57:09;;;;;;;7.93;5.60;;;;;;;;;;5009827;28;20459;-63
2022/09/09 05:59:35;;;;;;;10.27;6.30;;;;;;;;;;5006464;28;20077;-63
2022/09/09 06:02:01;;;;;;;9.27;5.60;;;;;;;;;;5006279;28;20075;-63
2022/09/09 06:04:27;;;;;;;9.38;5.82;;;;;;;;;;4999027;28;20039;-63
2022/09/09 06:06:53;;;;;;;8.50;5.40;;;;;;;;;;5005174;28;20045;-63
2022/09/09 06:09:19;;;;;;;7.13;4.85;;;;;;;;;;5008323;28;20042;-63
2022/09/09 06:11:45;;;;;;;8.10;5.25;;;;;;;;;;5001258;28;20117;-64
2022/09/09 06:14:11;;;;;;;10.25;5.30;;;;;;;;;;4996553;28;20050;-63
2022/09/09 06:16:37;;;;;;;7.78;5.28;;;;;;;;;;4995410;28;20066;-64
2022/09/09 06:19:03;;;;;;;8.07;5.22;;;;;;;;;;5009400;28;20076;-64
2022/09/09 06:21:36;;;;;;;9.45;5.68;;;;;;;;;;5006931;28;20037;-64
2022/09/09 06:24:03;;;;;;;8.52;5.82;;;;;;;;;;5003491;28;20045;-64
2022/09/09 06:26:33;;;;;;;8.43;5.15;;;;;;;;;;5008793;28;20139;-64
2022/09/09 06:28:59;;;;;;;10.60;5.40;;;;;;;;;;5007542;28;20046;-63
2022/09/09 06:31:30;;;;;;;9.65;5.50;;;;;;;;;;4997995;28;20120;-64
2022/09/09 06:33:56;;;;;;;6.97;5.28;;;;;;;;;;5009782;28;20081;-64
2022/09/09 06:36:23;;;;;;;7.47;5.38;;;;;;;;;;5008600;28;20364;-64
2022/09/09 06:38:50;;;;;;;8.88;5.45;;;;;;;;;;5003554;28;20038;-64
2022/09/09 06:41:18;;;;;;;8.98;5.47;;;;;;;;;;4983029;28;20659;-64
2022/09/09 06:43:44;;;;;;;8.85;5.50;;;;;;;;;;5006467;28;20407;-64
2022/09/09 06:46:10;;;;;;;10.45;5.15;;;;;;;;;;5007600;28;20404;-64
2022/09/09 06:48:36;;;;;;;7.25;5.28;;;;;;;;;;5004045;28;20037;-64
2022/09/09 06:51:03;;;;;;;7.60;5.35;;;;;;;;;;5007585;28;20050;-64
2022/09/09 06:53:29;;;;;;;8.73;5.15;;;;;;;;;;4997494;28;20041;-64
2022/09/09 06:55:55;;;;;;;8.38;5.63;;;;;;;;;;5009030;28;20041;-64
2022/09/09 06:58:24;;;;;;;9.35;5.38;;;;;;;;;;4999397;28;20061;-64
2022/09/09 07:00:50;;;;;;;9.15;5.25;;;;;;;;;;5005550;28;20041;-64
2022/09/09 07:03:17;;;;;;;9.55;5.28;;;;;;;;;;5002732;28;20447;-63
2022/09/09 07:05:44;;;;;;;10.82;5.35;;;;;;;;;;5002650;28;20125;-64
2022/09/09 07:08:11;;;;;;;8.20;5.13;;;;;;;;;;4992066;28;20050;-64
2022/09/09 07:10:37;;;;;;;13.73;5.28;;;;;;;;;;5008813;28;20412;-64
2022/09/09 07:13:04;;;;;;;7.07;5.47;;;;;;;;;;5013376;28;20038;-64
2022/09/09 07:15:31;;;;;;;11.73;5.55;;;;;;;;;;5006000;28;20053;-64
2022/09/09 07:18:01;;;;;;;8.45;5.20;;;;;;;;;;5009419;28;20526;-64
2022/09/09 07:20:27;;;;;;;9.35;5.15;;;;;;;;;;5006897;28;20412;-63
2022/09/09 07:22:55;;;;;;;9.65;5.20;;;;;;;;;;5009412;28;20046;-64
2022/09/09 07:25:21;;;;;;;9.18;5.68;;;;;;;;;;5003004;28;20590;-64
2022/09/09 07:27:48;;;;;;;11.45;4.85;;;;;;;;;;5007598;28;20103;-64
2022/09/09 07:30:14;;;;;;;10.70;5.20;;;;;;;;;;5007838;28;20070;-64
2022/09/09 07:32:40;;;;;;;8.00;5.10;;;;;;;;;;5010490;28;20120;-64
2022/09/09 07:35:06;;;;;;;8.02;4.68;;;;;;;;;;4990902;28;20080;-64
2022/09/09 07:37:32;;;;;;;8.73;5.05;;;;;;;;;;5005659;28;20439;-64
2022/09/09 07:39:58;;;;;;;11.43;5.45;;;;;;;;;;5013634;28;20062;-64
2022/09/09 07:42:25;;;;;;;10.43;5.10;;;;;;;;;;4998255;28;20054;-64
2022/09/09 07:44:54;;;;;;;8.35;4.70;;;;;;;;;;5008510;28;20076;-64
2022/09/09 07:47:20;;;;;;;6.25;4.65;;;;;;;;;;5009304;28;20519;-64
2022/09/09 07:49:49;;;;;;;9.25;4.15;;;;;;;;;;4999877;28;20030;-64
2022/09/09 07:52:16;;;;;;;10.68;5.00;;;;;;;;;;5003388;28;20601;-64
2022/09/09 07:54:42;;;;;;;11.32;5.22;;;;;;;;;;5005670;28;20057;-64
2022/09/09 07:57:08;;;;;;;10.40;5.65;;;;;;;;;;5011198;28;20519;-64
2022/09/09 07:59:34;;;;;;;6.60;5.00;;;;;;;;;;5008643;28;20042;-64
2022/09/09 08:02:00;;;;;;;10.27;5.38;;;;;;;;;;5005701;28;20049;-64
2022/09/09 08:04:27;;;;;;;7.72;5.53;;;;;;;;;;5009146;28;20039;-64
2022/09/09 08:06:58;;;;;;;9.63;5.13;;;;;;;;;;5000446;28;20045;-64
2022/09/09 08:09:28;;;;;;;8.73;5.03;;;;;;;;;;5016418;28;20034;-64
2022/09/09 08:11:56;;;;;;;9.23;5.00;;;;;;;;;;5004113;28;20105;-64
2022/09/09 08:14:22;;;;;;;8.73;5.50;;;;;;;;;;5011418;28;20625;-64
2022/09/09 08:16:49;;;;;;;9.70;5.40;;;;;;;;;;5008378;28;20033;-64
2022/09/09 08:19:15;;;;;;;10.55;5.53;;;;;;;;;;5011716;28;20112;-63
2022/09/09 08:21:42;;;;;;;10.63;5.57;;;;;;;;;;5011663;28;20044;-64
2022/09/09 08:24:10;;;;;;;14.30;5.30;;;;;;;;;;5007251;28;20172;-64
2022/09/09 08:26:38;;;;;;;13.45;5.57;;;;;;;;;;5005044;28;20116;-64
2022/09/09 08:29:05;;;;;;;13.63;5.40;;;;;;;;;;5021588;28;20041;-64
2022/09/09 08:31:33;;;;;;;7.68;4.95;;;;;;;;;;5012448;28;20037;-64
2022/09/09 08:33:59;;;;;;;12.07;6.10;;;;;;;;;;5005737;28;20053;-64
2022/09/09 08:36:27;;;;;;;19.75;6.68;;;;;;;;;;5005796;28;20376;-64
2022/09/09 08:38:54;;;;;;;23.10;6.35;;;;;;;;;;4991646;28;20045;-64
2022/09/09 08:41:32;;;;;;;14.23;5.35;;;;;;;;;;5006178;28;20502;-64
2022/09/09 08:44:02;;;;;;;9.50;4.70;;;;;;;;;;5003283;28;20049;-64
2022/09/09 08:46:48;;;;;;;8.55;4.60;;;;;;;;;;5004716;28;20092;-64
2022/09/09 08:49:30;;;;;;;21.00;6.50;;;;;;;;;;4992903;28;20049;-64
2022/09/09 08:51:57;;;;;;;14.45;5.38;;;;;;;;;;5014445;28;20061;-64
2022/09/09 08:54:23;;;;;;;9.18;4.50;;;;;;;;;;5008455;28;20446;-64
2022/09/09 08:56:49;;;;;;;11.20;4.68;;;;;;;;;;5003033;28;20556;-64
2022/09/09 08:59:18;;;;;;;10.13;4.28;;;;;;;;;;5005668;28;20061;-64
2022/09/09 09:01:48;;;;;;;10.30;4.32;;;;;;;;;;5020554;28;20037;-65
2022/09/09 09:04:20;;;;;;;9.82;4.00;;;;;;;;;;5014450;28;20049;-64
2022/09/09 09:06:55;;;;;;;9.88;4.10;;;;;;;;;;5007362;28;20090;-64
2022/09/09 09:09:30;;;;;;;9.85;3.95;;;;;;;;;;4992714;28;20100;-64
2022/09/09 09:12:01;;;;;;;12.88;4.15;;;;;;;;;;5005539;28;20053;-64
2022/09/09 09:14:33;;;;;;;7.63;3.85;;;;;;;;;;5002973;28;20046;-64
2022/09/09 09:17:05;;;;;;;8.55;3.65;;;;;;;;;;4986859;28;20088;-64
2022/09/09 09:19:33;;;;;;;11.25;4.28;;;;;;;;;;5008473;28;20050;-64
2022/09/09 09:22:07;;;;;;;10.90;4.22;;;;;;;;;;5010131;28;20052;-64
2022/09/09 09:24:52;;;;;;;10.48;3.92;;;;;;;;;;5006187;28;20061;-64
2022/09/09 09:27:35;;;;;;;8.30;3.42;;;;;;;;;;5005505;28;20034;-64
2022/09/09 09:30:03;;;;;;;8.43;3.47;;;;;;;;;;4999446;28;20165;-64
2022/09/09 09:32:31;;;;;;;9.75;3.75;;;;;;;;;;5004692;28;20451;-64
2022/09/09 09:35:04;;;;;;;11.38;4.35;;;;;;;;;;5007685;28;20088;-64
2022/09/09 09:37:32;;;;;;;8.82;3.58;;;;;;;;;;4998025;28;20408;-64
2022/09/09 09:40:10;;;;;;;9.57;3.00;;;;;;;;;;4989593;28;20128;-63
2022/09/09 09:42:36;;;;;;;13.85;3.70;;;;;;;;;;5010224;28;20042;-64
2022/09/09 09:45:16;;;;;;;10.10;3.20;;;;;;;;;;4986502;28;20057;-64
2022/09/09 09:47:42;;;;;;;7.28;3.10;;;;;;;;;;5002884;28;20046;-64
2022/09/09 09:50:19;;;;;;;10.45;3.00;;;;;;;;;;5006662;28;20046;-64
2022/09/09 09:52:53;;;;;;;9.50;2.53;;;;;;;;;;5003705;28;20534;-64
2022/09/09 09:55:20;;;;;;;9.32;2.65;;;;;;;;;;4998399;28;20042;-65
2022/09/09 09:57:46;;;;;;;9.52;2.65;;;;;;;;;;5004769;28;20056;-64
2022/09/09 10:00:13;;;;;;;5.78;2.53;;;;;;;;;;5002002;28;20046;-64
2022/09/09 10:02:42;;;;;;;8.52;2.42;;;;;;;;;;5009785;28;20049;-64
2022/09/09 10:05:25;;;;;;;7.85;3.00;;;;;;;;;;5000071;28;20050;-64
2022/09/09 10:08:20;;;;;;;8.85;2.95;;;;;;;;;;5005301;28;20369;-64
2022/09/09 10:10:59;;;;;;;7.85;2.28;;;;;;;;;;4996944;28;20050;-64
2022/09/09 10:13:34;;;;;;;9.35;2.60;;;;;;;;;;4992136;28;20046;-64
2022/09/09 10:16:19;;;;;;;6.90;2.47;;;;;;;;;;4991697;28;20550;-64
2022/09/09 10:18:48;;;;;;;10.82;2.83;;;;;;;;;;5009069;28;20051;-64
2022/09/09 10:21:34;;;;;;;6.28;2.28;;;;;;;;;;5009878;28;20510;-64
2022/09/09 10:24:00;;;;;;;11.90;2.92;;;;;;;;;;4982274;28;20058;-64
2022/09/09 10:26:29;;;;;;;10.40;2.45;;;;;;;;;;4991008;28;20411;-64
2022/09/09 10:29:18;;;;;;;8.05;2.10;;;;;;;;;;4991722;28;20038;-64
2022/09/09 10:31:53;;;;;;;10.23;2.20;;;;;;;;;;4954925;28;20140;-64
2022/09/09 10:34:20;;;;;;;11.57;2.70;;;;;;;;;;4992256;28;20080;-64
2022/09/09 10:36:48;;;;;;;5.78;1.92;;;;;;;;;;5007674;28;20049;-64
2022/09/09 10:39:33;;;;;;;7.57;2.20;;;;;;;;;;5001406;28;20492;-64
2022/09/09 10:42:07;;;;;;;5.00;1.98;;;;;;;;;;4991149;28;20046;-64
2022/09/09 10:44:35;;;;;;;7.63;2.10;;;;;;;;;;4995931;28;20037;-64
2022/09/09 10:47:17;;;;;;;4.97;2.38;;;;;;;;;;5010847;28;20056;-64
2022/09/09 10:50:09;;;;;;;5.07;1.63;;;;;;;;;;5003419;28;20499;-64
2022/09/09 10:52:56;;;;;;;6.25;1.60;;;;;;;;;;5004116;23;20049;-65
2022/09/09 10:55:27;;;;;;;5.80;1.50;;;;;;;;;;5050874;28;20072;-65
2022/09/09 10:57:58;;;;;;;6.43;1.83;;;;;;;;;;5050414;28;20064;-65
2022/09/09 11:00:25;;;;;;;4.00;1.10;;;;;;;;;;5032086;28;20041;-65
2022/09/09 11:02:58;;;;;;;8.30;1.70;;;;;;;;;;5040949;28;20038;-65
2022/09/09 11:05:30;;;;;;;5.05;1.40;;;;;;;;;;5031511;28;20076;-65
2022/09/09 11:07:58;;;;;;;6.97;2.05;;;;;;;;;;5043047;28;20041;-65
2022/09/09 11:10:44;;;;;;;4.85;1.38;;;;;;;;;;5054536;28;20045;-65
2022/09/09 11:13:31;;;;;;;6.47;1.70;;;;;;;;;;5054347;28;20461;-65
2022/09/09 11:16:00;;;;;;;5.97;1.80;;;;;;;;;;5049853;28;20041;-65
2022/09/09 11:18:29;;;;;;;4.95;1.80;;;;;;;;;;5041154;28;21400;-65
2022/09/09 11:20:59;;;;;;;7.32;1.65;;;;;;;;;;5031992;28;20628;-65
2022/09/09 11:23:28;;;;;;;6.75;1.80;;;;;;;;;;5031752;28;20045;-65
2022/09/09 11:26:03;;;;;;;10.45;2.28;;;;;;;;;;5034410;28;20052;-65
2022/09/09 11:28:38;;;;;;;4.13;1.60;;;;;;;;;;5033281;28;20060;-65
2022/09/09 11:31:23;;;;;;;6.07;1.95;;;;;;;;;;5040741;28;20047;-65
2022/09/09 11:33:52;;;;;;;4.10;1.50;;;;;;;;;;5041137;28;20048;-65
2022/09/09 11:36:25;;;;;;;6.80;1.95;;;;;;;;;;5035019;28;20041;-65
2022/09/09 11:38:52;;;;;;;10.07;2.08;;;;;;;;;;5045577;28;20040;-65
2022/09/09 11:41:20;;;;;;;8.25;1.90;;;;;;;;;;5052274;28;20055;-65
2022/09/09 11:43:48;;;;;;;5.95;1.52;;;;;;;;;;5053969;28;20128;-65
2022/09/09 11:46:17;;;;;;;6.53;1.98;;;;;;;;;;5043007;28;20037;-65
2022/09/09 11:48:45;;;;;;;3.80;1.30;;;;;;;;;;5038903;28;20041;-65
2022/09/09 11:51:26;;;;;;;7.20;1.75;;;;;;;;;;5032752;28;20049;-65
2022/09/09 11:53:52;;;;;;;;;;;;;;;;;;5040206;28;20068;-65
2022/09/09 11:56:32;;;;;;;3.30;1.23;;;;;;;;;;5053958;28;19917;-65
2022/09/09 11:59:00;;;;;;;6.78;1.60;;;;;;;;;;5043771;28;20052;-65
2022/09/09 12:01:45;;;;;;;6.22;1.75;;;;;;;;;;5034037;28;20045;-65
2022/09/09 12:04:32;;;;;;;7.55;1.63;;;;;;;;;;5038136;28;20069;-65
2022/09/09 12:07:00;;;;;;;5.43;1.27;;;;;;;;;;5024590;28;20080;-65
2022/09/09 12:09:30;;;;;;;6.55;1.80;;;;;;;;;;5044297;28;20428;-65
2022/09/09 12:12:21;;;;;;;6.43;1.63;;;;;;;;;;5053175;28;20116;-65
2022/09/09 12:15:02;;;;;;;9.32;2.03;;;;;;;;;;5043513;28;20044;-65
2022/09/09 12:17:30;;;;;;;6.30;1.83;;;;;;;;;;5043723;28;20037;-65
2022/09/09 12:20:14;;;;;;;5.40;1.48;;;;;;;;;;5052528;28;20040;-65
2022/09/09 12:22:40;;;;;;;5.28;1.35;;;;;;;;;;5032796;28;20408;-65
2022/09/09 12:25:26;;;;;;;5.82;1.55;;;;;;;;;;5031604;28;20037;-65
2022/09/09 12:28:01;;;;;;;6.50;1.45;;;;;;;;;;5032879;28;20084;-65
2022/09/09 12:30:35;;;;;;;5.97;1.63;;;;;;;;;;5040154;28;20128;-65
2022/09/09 12:33:02;;;;;;;6.03;1.30;;;;;;;;;;5047921;28;20045;-65
2022/09/09 12:35:30;;;;;;;7.40;1.27;;;;;;;;;;5047923;28;20075;-65
2022/09/09 12:37:58;;;;;;;4.28;1.40;;;;;;;;;;5044174;28;20558;-65
2022/09/09 12:40:25;;;;;;;7.18;1.33;;;;;;;;;;5052771;28;20040;-65
2022/09/09 12:42:51;;;;;;;3.78;1.33;;;;;;;;;;5046299;28;20415;-65
2022/09/09 12:45:19;;;;;;;4.93;1.70;;;;;;;;;;5048176;28;20041;-65
2022/09/09 12:47:50;;;;;;;5.22;1.40;;;;;;;;;;5019998;28;20049;-66
2022/09/09 12:50:18;;;;;;;6.50;1.63;;;;;;;;;;5017604;28;20461;-65
2022/09/09 12:52:46;;;;;;;5.40;1.65;;;;;;;;;;5045380;28;20041;-65
2022/09/09 12:55:16;;;;;;;5.68;1.30;;;;;;;;;;5034639;28;20045;-65
2022/09/09 12:57:43;;;;;;;3.97;1.63;;;;;;;;;;5028199;28;20044;-65
2022/09/09 13:00:16;;;;;;;4.43;1.50;;;;;;;;;;5042705;28;20045;-65
2022/09/09 13:02:46;;;;;;;3.95;1.17;;;;;;;;;;5034774;28;20034;-65
2022/09/09 13:05:17;;;;;;;5.73;1.40;;;;;;;;;;5029286;28;20041;-65
2022/09/09 13:07:43;;;;;;;5.53;1.42;;;;;;;;;;5041990;28;20486;-65
2022/09/09 13:10:14;;;;;;;5.45;1.27;;;;;;;;;;5040388;28;20068;-65
2022/09/09 13:12:41;;;;;;;6.97;1.42;;;;;;;;;;5036852;28;20045;-65
2022/09/09 13:15:14;;;;;;;4.82;1.60;;;;;;;;;;5039087;28;20042;-66
2022/09/09 13:17:40;;;;;;;4.85;1.52;;;;;;;;;;5025404;28;20049;-65
2022/09/09 13:20:08;;;;;;;6.93;1.92;;;;;;;;;;5037352;28;20049;-65
2022/09/09 13:22:40;;;;;;;5.95;1.60;;;;;;;;;;5020410;28;20496;-66
2022/09/09 13:25:10;;;;;;;5.80;1.60;;;;;;;;;;5036130;28;20045;-65
2022/09/09 13:27:42;;;;;;;4.85;1.55;;;;;;;;;;5029327;28;20040;-66
2022/09/09 13:30:22;;;;;;;3.72;1.60;;;;;;;;;;5030792;28;20415;-65
2022/09/09 13:32:48;;;;;;;4.95;1.30;;;;;;;;;;5034782;28;20556;-65
2022/09/09 13:35:25;;;;;;;6.80;1.25;;;;;;;;;;5051588;28;20045;-66
2022/09/09 13:37:51;;;;;;;2.45;1.13;;;;;;;;;;5035231;28;20045;-66
2022/09/09 13:40:24;;;;;;;2.45;0.90;;;;;;;;;;5024867;28;20041;-65
2022/09/09 13:42:55;;;;;;;3.83;1.10;;;;;;;;;;5023977;28;20107;-65
2022/09/09 13:45:23;;;;;;;7.45;1.20;;;;;;;;;;5015113;28;20101;-65
2022/09/09 13:47:52;;;;;;;3.78;1.15;;;;;;;;;;5040050;28;20067;-65
2022/09/09 13:50:22;;;;;;;4.32;1.35;;;;;;;;;;5049440;28;20383;-65
2022/09/09 13:52:51;;;;;;;5.38;1.10;;;;;;;;;;5038160;28;20083;-65
2022/09/09 13:55:17;;;;;;;4.30;1.10;;;;;;;;;;5028498;28;20660;-66
2022/09/09 13:57:54;;;;;;;4.90;1.20;;;;;;;;;;5031739;28;20044;-65
2022/09/09 14:00:20;;;;;;;4.78;1.42;;;;;;;;;;5049302;28;20043;-65
2022/09/09 14:02:47;;;;;;;3.03;1.10;;;;;;;;;;5036060;28;20044;-65
2022/09/09 14:05:13;;;;;;;4.85;1.10;;;;;;;;;;5026546;28;20050;-65
2022/09/09 14:07:41;;;;;;;2.72;1.20;;;;;;;;;;5037838;28;20037;-65
2022/09/09 14:10:07;;;;;;;5.60;1.80;;;;;;;;;;5029799;28;20465;-66
2022/09/09 14:12:33;;;;;;;7.28;1.60;;;;;;;;;;5026404;28;20056;-66
2022/09/09 14:14:59;;;;;;;6.53;1.65;;;;;;;;;;5028767;28;20562;-66
2022/09/09 14:17:31;;;;;;;2.40;1.40;;;;;;;;;;5037640;28;20643;-66
2022/09/09 14:19:57;;;;;;;4.53;1.27;;;;;;;;;;5028588;28;20112;-66
2022/09/09 14:22:23;;;;;;;5.00;1.30;;;;;;;;;;5030322;28;20590;-66
2022/09/09 14:24:50;;;;;;;2.97;1.20;;;;;;;;;;5027011;28;20046;-66
2022/09/09 14:27:18;;;;;;;2.97;1.05;;;;;;;;;;5048596;28;20486;-66
2022/09/09 14:29:44;;;;;;;3.47;1.25;;;;;;;;;;5027678;28;20116;-66
2022/09/09 14:32:11;;;;;;;1.58;1.00;;;;;;;;;;5020770;28;20092;-66
2022/09/09 14:34:38;;;;;;;2.55;1.30;;;;;;;;;;5011093;28;20046;-66
2022/09/09 14:37:04;;;;;;;2.45;1.17;;;;;;;;;;5014235;28;20041;-66
2022/09/09 14:39:30;;;;;;;4.97;1.83;;;;;;;;;;5022206;28;20042;-66
2022/09/09 14:41:56;;;;;;;4.45;1.60;;;;;;;;;;5039743;28;20074;-66
2022/09/09 14:44:22;;;;;;;6.15;1.77;;;;;;;;;;5040909;28;20415;-66
2022/09/09 14:46:50;;;;;;;4.22;1.75;;;;;;;;;;5039841;28;20036;-66
2022/09/09 14:49:16;;;;;;;2.00;1.50;;;;;;;;;;5029261;28;20045;-66
2022/09/09 14:51:42;;;;;;;3.13;1.40;;;;;;;;;;5036234;28;20491;-66
2022/09/09 14:54:08;;;;;;;5.63;1.80;;;;;;;;;;5037625;28;20033;-66
2022/09/09 14:56:34;;;;;;;3.17;1.77;;;;;;;;;;5040876;28;20112;-66